In Rescue
 
Open Full Screen Window  High Contrast Mode
Wind Gusting 15 knots
10
April 19, 2021 8:07 PM CDT
Weather Information
Wind Direction
  330 °
Wind Speed
  10 kt (12 mph)
Wind Gust
  15 kt (17 mph)
Altimeter
30.05 in
Visibility
10 SM
Temperature
01° C
34° F
Dewpoint
-12° C
10° F
Humidity
38%
1hr Rain Fall
00.00 in.
24hr Rain Fall
00.00 in.
Sky Condition
Overcast @ 6,500 ft
Scattered @ 5,000 ft
VFR

METAR KBJI 200107Z AUTO 33010G15KT 10SM SCT050 OVC065 01/M12 A3005 RMK AO2 T00101116

FAA Disclaimer: The data displayed is for advisory purposes only and is not to be used for flight planning or operations.